Česky Dansk Deutsch English Español Suomi Français Magyar Italiano Nederlands norsk Polski Português svenska Türkçe

 

Het Weer

Morogoro (Tanzania)

04:00, 10 augustus 2016 (GMT)

 
WE
 
Home            
Morogoro Dar Es Salaam Airport Zanzibar / Kisauni Dodoma Mombo Iringa Tanga Pemba / Karume Airport Same Kilwa Masoko Mombasa Kilimanjaro Airport Moshi Voi Arusha Nachingwea Mtwara Malindi Songea Makindu Mbeya Karonga Tabora Airport

Om een weerknop op uw website of weblog te plaatsen, copieer onderstaande code en plak die in uw pagina. In het eerste vakje staat HTML-code, in het tweede vakje UBB-code.


Add to Google

Details

Visibility:Greater than 10000 m, 10 km, 32800 ft, 6.2 miles
Clouds:Durchbrochene Bewölkung at 2000 ft, 610 m
Temperature:19°C, 66°F
Dew-point:19°C, 66°F
Atmospheric pressure:1022 hPa, 766.6 mmHg, 30.18 inHg, 1.009 atm
Relative humidity:100.0 %
METAR:HTMG 100400Z 00000KT 9999 BKN020 19/19 Q1022

Snelkoppelingen

Actuele weersinformatie van de hele wereld. Voeg locaties toe met het plus (+) symbool. Deze snelkoppelingen kunnen worden toegevoegd aan Google.

Lid van de Technetium groep

website free tracking
StatCounter NetStat W3C Validator

22-05-2022 12:39:32
astro.technetium.be money.technetium.be phote.technetium.be tafeltennistafel.technetium.be www.ligfiets.net